Thursday, November 23, 2017, 1:23 PM EST
Back to Local

KLFI, Langley Air Force Base

Location: Hampton, VA, United States Lat: 37.083
Local Time: 1:23 PM EST (18:23 GMT) Lon: -76.35
Time Zone: US/Eastern Elev: 9 ft

Show me the last for .
Show Decoded

2017-11-23 12:56 METAR KLFI 231756Z AUTO 07006KT 9SM SCT200 07/M01 A3012 RMK AO2 SLP207 T00741011
                 10074 20019 57026 =
2017-11-23 11:56 METAR KLFI 231656Z AUTO 04003KT 10SM FEW210 06/M02 A3016 RMK AO2 SLP220
                 T00641017 =
2017-11-23 10:56 METAR KLFI 231556Z AUTO 35007KT 9SM FEW220 06/M01 A3016 RMK AO2 SLP220 T00611015
                 =
2017-11-23 09:56 METAR KLFI 231456Z AUTO 02009KT 9SM SCT220 06/M01 A3019 RMK AO2 SLP230 T00591010
                 52013 =
2017-11-23 08:56 METAR KLFI 231356Z AUTO 34012KT 10SM CLR 04/M02 A3018 RMK AO2 SLP227 T00431021 =
2017-11-23 07:56 METAR KLFI 231256Z AUTO 34010KT 10SM CLR 03/M02 A3018 RMK AO2 SLP227 T00311016 =
2017-11-23 06:56 METAR KLFI 231156Z AUTO 33006KT 10SM CLR 02/M02 A3016 RMK AO2 SLP220 70010
                 T00211021 10046 20017 53002 =
2017-11-23 05:56 METAR KLFI 231056Z AUTO 33008KT 10SM CLR 02/M02 A3015 RMK AO2 SLP217 T00201023 =
2017-11-23 04:56 METAR KLFI 230956Z AUTO 32005KT 10SM CLR 02/M02 A3014 RMK AO2 SLP213 T00201023 =
2017-11-23 03:56 METAR KLFI 230856Z AUTO 33007KT 10SM CLR 03/M03 A3015 RMK AO2 SLP217 T00251026
                 57004 =
2017-11-23 02:56 METAR KLFI 230756Z AUTO 33008KT 10SM CLR 03/M02 A3015 RMK AO2 SLP217 T00321023 =
2017-11-23 01:56 METAR KLFI 230656Z AUTO 31006KT 10SM CLR 04/M02 A3016 RMK AO2 SLP220 T00381022 =
2017-11-23 00:56 METAR KLFI 230556Z AUTO 34012KT 10SM CLR 05/M02 A3016 RMK AO2 SLP220 T00461021
                 10096 20046 51007 =
2017-11-22 23:56 METAR KLFI 230456Z AUTO 34012KT 10SM CLR 06/M02 A3016 RMK AO2 SLP220 T00581023
                 401670058 =
2017-11-22 22:56 METAR KLFI 230356Z AUTO 34012G21KT 10SM CLR 06/M02 A3015 RMK AO2 SLP217
                 T00631018 =
2017-11-22 21:56 METAR KLFI 230256Z 36015G20KT 10SM FEW240 07/M01 A3014 RMK AO2A SLP213 T00711006
                 52020 =
2017-11-22 20:56 METAR KLFI 230156Z 34007KT 10SM FEW250 07/00 A3013 RMK AO2A SLP210 T00741001 =
2017-11-22 19:56 METAR KLFI 230056Z 35012KT 10SM FEW240 09/00 A3011 RMK AO2A SLP203 T00870002 =
2017-11-22 18:56 METAR KLFI 222356Z 35016G20KT 10SM FEW240 10/00 A3008 RMK AO2A PK WND 34027/08
                 SLP193 T00970003 10167 20096 52030 =
2017-11-22 17:56 METAR KLFI 222256Z 35017G22KT 10SM FEW240 11/01 A3005 RMK AO2A SLP183 T01050013
                 =
2017-11-22 16:56 METAR KLFI 222156Z 36014G21KT 10SM FEW240 12/04 A3001 RMK AO2A SLP169 T01200035
                 =
2017-11-22 15:55 METAR KLFI 222055Z 36013G18KT 10SM FEW240 14/04 A2999 RMK SLP162 T01380038 53016
                 =
2017-11-22 14:56 METAR KLFI 221956Z AUTO 36013KT 10SM CLR 16/03 A2996 RMK AO2 SLP152 T01620029 =
2017-11-22 13:56 METAR KLFI 221856Z AUTO 32011KT 9SM CLR 17/05 A2994 RMK AO2 SLP145 T01650051 =

Support USWX by starting your Amazon purchase here.